Time;durP1;ratioP1;P1;durP2;ratioP2;P2;SDS_P1;SDS_P2;PMS_P1;PMS_P2;Temp;Humidity;BMP_temperature;BMP_pressure;BME280_temperature;BME280_humidity;BME280_pressure;Samples;Min_cycle;Max_cycle;Signal;HPM_P1;HPM_P2
2024/01/18 00:01:03;;;;;;;;;;;4.20;92.70;;;;;;5008454;28;87415;-47
2024/01/18 00:03:28;;;;;;;;;;;4.30;92.70;;;;;;5009225;28;86963;-49
2024/01/18 00:05:54;;;;;;;;;;;4.30;92.70;;;;;;5007501;28;87058;-48
2024/01/18 00:08:19;;;;;;;;;;;4.30;92.70;;;;;;5008282;28;86879;-46
2024/01/18 00:10:45;;;;;;;;;;;4.30;92.70;;;;;;5008558;28;86928;-48
2024/01/18 00:13:11;;;;;;;;;;;4.30;92.70;;;;;;5004759;28;88009;-47
2024/01/18 00:15:37;;;;;;;;;;;4.30;92.70;;;;;;5006853;28;87779;-47
2024/01/18 00:18:04;;;;;;;;;;;4.40;92.70;;;;;;5008346;28;86992;-47
2024/01/18 00:20:30;;;;;;;;;;;4.30;92.70;;;;;;5007502;28;87620;-47
2024/01/18 00:22:55;;;;;;;;;;;4.30;92.90;;;;;;5004459;28;88094;-47
2024/01/18 00:25:21;;;;;;;;;;;4.30;92.70;;;;;;5007056;28;87697;-49
2024/01/18 00:27:47;;;;;;;;;;;4.40;92.80;;;;;;5002565;28;88563;-48
2024/01/18 00:30:13;;;;;;;;;;;4.40;92.70;;;;;;5008100;28;87100;-47
2024/01/18 00:32:39;;;;;;;;;;;4.40;92.70;;;;;;5008572;28;87952;-47
2024/01/18 00:35:04;;;;;;;;;;;4.40;92.70;;;;;;5007544;28;88408;-49
2024/01/18 00:37:30;;;;;;;;;;;4.40;92.70;;;;;;5007130;28;87031;-47
2024/01/18 00:39:55;;;;;;;;;;;4.40;92.60;;;;;;5011776;28;86883;-50
2024/01/18 00:42:21;;;;;;;;;;;4.40;92.70;;;;;;5007282;28;87009;-47
2024/01/18 00:44:46;;;;;;;;;;;4.50;92.70;;;;;;5002108;28;87631;-50
2024/01/18 00:47:12;;;;;;;;;;;4.40;92.60;;;;;;5006955;28;88488;-46
2024/01/18 00:49:38;;;;;;;;;;;4.40;92.60;;;;;;5006770;28;87386;-47
2024/01/18 00:52:04;;;;;;;;;;;4.50;92.70;;;;;;5007282;28;88137;-48
2024/01/18 00:54:29;;;;;;;;;;;4.50;92.60;;;;;;5005776;28;87469;-47
2024/01/18 00:56:55;;;;;;;;;;;4.50;92.60;;;;;;5007929;28;86946;-47
2024/01/18 00:59:20;;;;;;;;;;;4.50;92.70;;;;;;5007541;28;87790;-47
2024/01/18 01:01:46;;;;;;;;;;;4.50;92.60;;;;;;5010748;28;88633;-46
2024/01/18 01:04:11;;;;;;;;;;;4.50;92.60;;;;;;5008661;28;86782;-48
2024/01/18 01:06:37;;;;;;;;;;;4.50;92.60;;;;;;5005046;28;86987;-49
2024/01/18 01:09:03;;;;;;;;;;;4.50;92.70;;;;;;5004888;28;88528;-48
2024/01/18 01:11:29;;;;;;;;;;;4.50;92.60;;;;;;5003838;28;87920;-49
2024/01/18 01:13:55;;;;;;;;;;;4.50;92.60;;;;;;5006828;28;87606;-48
2024/01/18 01:16:20;;;;;;;;;;;4.50;92.60;;;;;;5007625;28;86942;-48
2024/01/18 01:18:46;;;;;;;;;;;4.50;92.60;;;;;;5007926;28;87981;-49
2024/01/18 01:21:11;;;;;;;;;;;4.60;92.60;;;;;;5007542;28;87386;-48
2024/01/18 01:23:41;;;;;;;;;;;4.60;92.60;;;;;;5010672;28;86995;-48
2024/01/18 01:26:08;;;;;;;;;;;4.60;92.60;;;;;;5007364;28;87467;-48
2024/01/18 01:28:34;;;;;;;;;;;4.60;92.60;;;;;;5004922;28;87946;-46
2024/01/18 01:30:59;;;;;;;;;;;4.60;92.60;;;;;;5007221;28;86949;-48
2024/01/18 01:33:25;;;;;;;;;;;4.60;92.50;;;;;;5007261;28;87366;-48
2024/01/18 01:35:50;;;;;;;;;;;4.60;92.50;;;;;;5004676;28;87940;-47
2024/01/18 01:38:16;;;;;;;;;;;4.60;92.70;;;;;;5007622;28;87668;-47
2024/01/18 01:40:42;;;;;;;;;;;4.60;92.50;;;;;;5007235;28;87516;-48
2024/01/18 01:43:09;;;;;;;;;;;4.70;92.80;;;;;;5003659;28;87027;-49
2024/01/18 01:45:34;;;;;;;;;;;4.60;92.50;;;;;;5009942;28;87084;-47
2024/01/18 01:48:00;;;;;;;;;;;4.70;92.50;;;;;;5007432;28;87023;-47
2024/01/18 01:50:26;;;;;;;;;;;4.70;92.50;;;;;;5007487;28;87953;-48
2024/01/18 01:52:52;;;;;;;;;;;4.70;92.50;;;;;;5006950;28;86821;-49
2024/01/18 01:55:17;;;;;;;;;;;4.60;92.50;;;;;;5007497;28;86998;-48
2024/01/18 01:57:44;;;;;;;;;;;4.70;92.50;;;;;;5006904;28;86921;-47
2024/01/18 02:00:12;;;;;;;;;;;4.70;92.50;;;;;;5005557;28;89216;-49
2024/01/18 02:02:39;;;;;;;;;;;4.70;92.60;;;;;;5002767;28;87367;-47
2024/01/18 02:05:05;;;;;;;;;;;4.70;92.50;;;;;;5006815;28;87256;-49
2024/01/18 02:07:30;;;;;;;;;;;4.70;92.50;;;;;;5009044;28;88359;-49
2024/01/18 02:09:56;;;;;;;;;;;4.70;92.50;;;;;;5005858;28;86965;-48
2024/01/18 02:12:23;;;;;;;;;;;4.70;92.60;;;;;;5006435;28;87276;-49
2024/01/18 02:14:48;;;;;;;;;;;4.70;92.60;;;;;;5006516;28;87181;-52
2024/01/18 02:17:14;;;;;;;;;;;4.70;92.60;;;;;;5007161;28;86752;-52
2024/01/18 02:19:40;;;;;;;;;;;4.80;92.50;;;;;;5006049;28;87438;-49
2024/01/18 02:22:07;;;;;;;;;;;4.80;92.50;;;;;;5007185;28;87069;-50
2024/01/18 02:24:35;;;;;;;;;;;4.70;92.60;;;;;;5005278;28;87914;-50
2024/01/18 02:27:01;;;;;;;;;;;4.70;92.50;;;;;;5006591;28;86816;-50
2024/01/18 02:29:26;;;;;;;;;;;4.80;92.50;;;;;;5009070;28;87097;-50
2024/01/18 02:31:52;;;;;;;;;;;4.80;92.50;;;;;;5006671;28;87460;-49
2024/01/18 02:34:18;;;;;;;;;;;4.80;92.60;;;;;;5006664;28;87337;-49
2024/01/18 02:36:44;;;;;;;;;;;4.80;92.60;;;;;;5006572;28;87212;-48
2024/01/18 02:39:09;;;;;;;;;;;4.80;92.60;;;;;;5005797;28;87503;-48
2024/01/18 02:41:35;;;;;;;;;;;4.80;92.50;;;;;;5007315;28;86290;-48
2024/01/18 02:44:01;;;;;;;;;;;4.80;92.50;;;;;;5004338;28;87335;-49
2024/01/18 02:46:29;;;;;;;;;;;4.80;92.50;;;;;;5006188;28;88475;-51
2024/01/18 02:48:55;;;;;;;;;;;4.80;92.50;;;;;;5008856;28;87968;-49
2024/01/18 02:51:20;;;;;;;;;;;4.90;92.50;;;;;;5005462;28;88578;-49
2024/01/18 02:53:46;;;;;;;;;;;4.90;92.60;;;;;;5006514;28;87029;-50
2024/01/18 02:56:11;;;;;;;;;;;4.90;92.60;;;;;;5005155;28;89623;-48
2024/01/18 02:58:37;;;;;;;;;;;4.90;92.50;;;;;;5006240;28;87603;-48
2024/01/18 03:01:03;;;;;;;;;;;4.90;92.50;;;;;;5006117;28;87388;-50
2024/01/18 03:03:28;;;;;;;;;;;4.90;92.50;;;;;;5006289;28;88348;-48
2024/01/18 03:05:54;;;;;;;;;;;4.90;92.50;;;;;;5006327;28;86590;-49
2024/01/18 03:08:20;;;;;;;;;;;4.90;92.50;;;;;;5005925;28;87097;-49
2024/01/18 03:10:45;;;;;;;;;;;4.90;92.50;;;;;;5007980;28;87954;-50
2024/01/18 03:13:11;;;;;;;;;;;4.90;92.50;;;;;;5002405;28;87941;-49
2024/01/18 03:15:37;;;;;;;;;;;4.90;92.50;;;;;;5006034;28;87821;-50
2024/01/18 03:18:03;;;;;;;;;;;4.90;92.50;;;;;;5005590;28;87414;-49
2024/01/18 03:20:28;;;;;;;;;;;4.90;92.60;;;;;;5002645;28;86976;-50
2024/01/18 03:22:54;;;;;;;;;;;4.90;92.50;;;;;;5006327;28;86895;-48
2024/01/18 03:25:20;;;;;;;;;;;4.90;92.50;;;;;;5005150;28;87417;-50
2024/01/18 03:27:45;;;;;;;;;;;4.90;92.60;;;;;;5005599;28;87049;-52
2024/01/18 03:30:11;;;;;;;;;;;4.90;92.60;;;;;;5006371;28;88045;-49
2024/01/18 03:32:36;;;;;;;;;;;4.90;92.60;;;;;;5008342;28;87589;-52
2024/01/18 03:35:02;;;;;;;;;;;4.90;92.60;;;;;;5006022;28;87778;-50
2024/01/18 03:37:28;;;;;;;;;;;5.00;92.60;;;;;;5005094;28;88416;-49
2024/01/18 03:39:53;;;;;;;;;;;4.90;92.50;;;;;;5005505;28;87063;-48
2024/01/18 03:42:19;;;;;;;;;;;5.00;92.60;;;;;;5005378;28;86970;-48
2024/01/18 03:44:44;;;;;;;;;;;5.00;92.60;;;;;;5004216;28;87410;-49
2024/01/18 03:47:10;;;;;;;;;;;5.00;92.60;;;;;;5005141;28;87085;-48
2024/01/18 03:49:35;;;;;;;;;;;5.00;92.60;;;;;;5005634;28;87064;-49
2024/01/18 03:52:01;;;;;;;;;;;5.00;92.60;;;;;;5005459;28;87868;-50
2024/01/18 03:54:27;;;;;;;;;;;5.00;92.60;;;;;;5009566;28;86274;-53
2024/01/18 03:56:52;;;;;;;;;;;5.00;92.60;;;;;;5008938;28;87408;-49
2024/01/18 03:59:20;;;;;;;;;;;5.00;92.50;;;;;;5009239;28;86944;-49
2024/01/18 04:01:45;;;;;;;;;;;5.00;92.60;;;;;;5008120;28;87935;-51
2024/01/18 04:04:11;;;;;;;;;;;5.00;92.60;;;;;;5008329;28;88412;-49
2024/01/18 04:06:36;;;;;;;;;;;5.00;92.60;;;;;;5008960;28;87006;-49
2024/01/18 04:09:02;;;;;;;;;;;5.10;92.60;;;;;;5008892;28;87093;-49
2024/01/18 04:11:29;;;;;;;;;;;5.10;92.60;;;;;;5008014;28;87432;-50
2024/01/18 04:13:55;;;;;;;;;;;5.10;92.60;;;;;;5008749;28;87007;-50
2024/01/18 04:16:20;;;;;;;;;;;5.10;92.60;;;;;;5010944;28;86749;-51
2024/01/18 04:18:46;;;;;;;;;;;5.10;92.60;;;;;;5008830;28;86994;-49
2024/01/18 04:21:13;;;;;;;;;;;5.10;92.60;;;;;;5008688;28;86933;-49
2024/01/18 04:23:38;;;;;;;;;;;5.10;92.70;;;;;;5008199;28;87383;-50
2024/01/18 04:26:04;;;;;;;;;;;5.10;92.70;;;;;;5008234;28;87916;-50
2024/01/18 04:28:29;;;;;;;;;;;5.10;92.60;;;;;;5008903;28;87807;-50
2024/01/18 04:30:55;;;;;;;;;;;5.10;92.60;;;;;;5006523;28;87536;-49
2024/01/18 04:33:20;;;;;;;;;;;5.10;92.60;;;;;;5008747;28;86982;-53
2024/01/18 04:35:46;;;;;;;;;;;5.10;92.70;;;;;;5010641;28;87894;-49
2024/01/18 04:38:12;;;;;;;;;;;5.10;92.70;;;;;;5004993;28;87063;-49
2024/01/18 04:40:38;;;;;;;;;;;5.10;92.70;;;;;;5007013;28;86949;-50
2024/01/18 04:43:03;;;;;;;;;;;5.10;92.70;;;;;;5007948;28;86762;-49
2024/01/18 04:45:29;;;;;;;;;;;5.10;92.70;;;;;;5006531;28;87069;-49
2024/01/18 04:47:56;;;;;;;;;;;5.20;92.50;;;;;;5007174;28;87823;-50
2024/01/18 04:50:24;;;;;;;;;;;5.20;92.60;;;;;;5003586;28;89117;-50
2024/01/18 04:52:50;;;;;;;;;;;5.20;92.60;;;;;;5008262;28;87058;-50
2024/01/18 04:55:16;;;;;;;;;;;5.10;92.60;;;;;;5007797;28;87866;-50
2024/01/18 04:57:42;;;;;;;;;;;5.10;92.60;;;;;;5010866;28;87281;-49
2024/01/18 05:00:10;;;;;;;;;;;5.20;92.70;;;;;;5008555;28;87044;-49
2024/01/18 05:02:39;;;;;;;;;;;5.20;92.90;;;;;;5003950;28;88830;-48
2024/01/18 05:05:08;;;;;;;;;;;5.20;92.70;;;;;;5008299;28;87463;-50
2024/01/18 05:07:42;;;;;;;;;;;5.20;92.60;;;;;;5007548;28;86860;-50
2024/01/18 05:10:09;;;;;;;;;;;5.20;92.70;;;;;;5007630;28;88270;-49
2024/01/18 05:12:35;;;;;;;;;;;5.20;92.70;;;;;;5007765;28;86921;-50
2024/01/18 05:15:01;;;;;;;;;;;5.20;92.70;;;;;;5007439;28;87850;-49
2024/01/18 05:17:37;;;;;;;;;;;5.20;92.70;;;;;;5006856;28;88504;-52
2024/01/18 05:20:03;;;;;;;;;;;5.20;92.70;;;;;;5010983;28;86956;-49
2024/01/18 05:22:30;;;;;;;;;;;5.20;92.70;;;;;;5004001;28;87296;-50
2024/01/18 05:24:56;;;;;;;;;;;5.30;92.70;;;;;;5006378;28;87079;-51
2024/01/18 05:27:22;;;;;;;;;;;5.30;92.80;;;;;;5007803;28;87815;-49
2024/01/18 05:29:47;;;;;;;;;;;5.30;92.70;;;;;;5007116;28;87593;-50
2024/01/18 05:32:13;;;;;;;;;;;5.20;92.70;;;;;;5007266;28;86348;-50
2024/01/18 05:34:40;;;;;;;;;;;5.20;92.80;;;;;;5007921;28;87039;-49
2024/01/18 05:37:05;;;;;;;;;;;5.30;92.80;;;;;;5003447;28;88537;-49
2024/01/18 05:39:31;;;;;;;;;;;5.20;92.80;;;;;;5006613;28;88050;-52
2024/01/18 05:41:57;;;;;;;;;;;5.30;92.80;;;;;;5010260;28;87644;-49
2024/01/18 05:44:22;;;;;;;;;;;5.30;92.80;;;;;;5005675;28;86980;-53
2024/01/18 05:46:48;;;;;;;;;;;5.30;92.80;;;;;;5004044;28;86932;-48
2024/01/18 05:49:13;;;;;;;;;;;5.30;92.80;;;;;;5007301;28;87405;-52
2024/01/18 05:51:39;;;;;;;;;;;5.30;92.80;;;;;;5007314;28;87136;-49
2024/01/18 05:54:04;;;;;;;;;;;5.30;92.80;;;;;;5004072;28;87183;-50
2024/01/18 05:56:30;;;;;;;;;;;5.30;92.80;;;;;;5007686;28;87240;-49
2024/01/18 05:58:56;;;;;;;;;;;5.30;92.80;;;;;;5006107;28;86987;-48
2024/01/18 06:01:21;;;;;;;;;;;5.30;92.80;;;;;;5007403;28;87075;-53
2024/01/18 06:04:06;;;;;;;;;;;5.30;92.90;;;;;;5008719;28;88443;-49
2024/01/18 06:06:32;;;;;;;;;;;5.30;92.90;;;;;;5004148;28;88810;-50
2024/01/18 06:08:57;;;;;;;;;;;5.30;92.90;;;;;;5005623;28;87151;-50
2024/01/18 06:11:24;;;;;;;;;;;5.30;92.80;;;;;;5006999;28;86871;-49
2024/01/18 06:13:50;;;;;;;;;;;5.40;92.90;;;;;;5007315;28;86986;-49
2024/01/18 06:16:16;;;;;;;;;;;5.30;92.80;;;;;;5006213;28;87415;-49
2024/01/18 06:18:42;;;;;;;;;;;5.40;92.90;;;;;;5005430;28;87064;-51
2024/01/18 06:21:08;;;;;;;;;;;5.40;92.90;;;;;;5007270;28;88023;-51
2024/01/18 06:23:33;;;;;;;;;;;5.40;92.90;;;;;;5006814;28;87573;-50
2024/01/18 06:25:59;;;;;;;;;;;5.40;92.90;;;;;;5009823;28;87055;-51
2024/01/18 06:28:25;;;;;;;;;;;5.40;92.90;;;;;;5005904;28;88780;-50
2024/01/18 06:30:50;;;;;;;;;;;5.40;92.90;;;;;;5006820;28;87022;-52
2024/01/18 06:33:16;;;;;;;;;;;5.40;92.90;;;;;;5005866;28;86874;-50
2024/01/18 06:35:41;;;;;;;;;;;5.40;93.00;;;;;;5006366;28;88519;-50
2024/01/18 06:38:07;;;;;;;;;;;5.40;93.00;;;;;;5006781;28;86896;-50
2024/01/18 06:40:32;;;;;;;;;;;5.40;93.00;;;;;;5007013;28;86922;-52
2024/01/18 06:42:58;;;;;;;;;;;5.40;92.90;;;;;;5005379;28;88424;-50
2024/01/18 06:45:23;;;;;;;;;;;5.50;93.00;;;;;;5009284;28;86243;-49
2024/01/18 06:47:49;;;;;;;;;;;5.50;93.00;;;;;;5005518;28;87493;-51
2024/01/18 06:50:16;;;;;;;;;;;5.50;93.00;;;;;;5003457;28;87203;-49
2024/01/18 06:52:41;;;;;;;;;;;5.50;93.00;;;;;;5005690;28;88105;-49
2024/01/18 06:55:08;;;;;;;;;;;5.50;92.90;;;;;;5006387;28;87371;-50
2024/01/18 06:57:34;;;;;;;;;;;5.50;93.00;;;;;;5006418;28;87071;-50
2024/01/18 07:00:00;;;;;;;;;;;5.50;92.90;;;;;;5003785;28;87197;-50
2024/01/18 07:02:25;;;;;;;;;;;5.50;92.90;;;;;;5005807;28;87521;-49
2024/01/18 07:04:51;;;;;;;;;;;5.50;92.90;;;;;;5005664;28;86929;-51
2024/01/18 07:07:17;;;;;;;;;;;5.50;92.90;;;;;;5006270;28;86963;-50
2024/01/18 07:09:43;;;;;;;;;;;5.50;92.90;;;;;;5006090;28;86207;-49
2024/01/18 07:12:09;;;;;;;;;;;5.50;92.80;;;;;;5006504;28;86871;-49
2024/01/18 07:14:35;;;;;;;;;;;5.50;92.90;;;;;;5006073;28;87518;-49
2024/01/18 07:17:01;;;;;;;;;;;5.60;92.80;;;;;;5005716;28;88193;-50
2024/01/18 07:19:26;;;;;;;;;;;5.60;92.70;;;;;;5001631;28;88502;-51
2024/01/18 07:21:53;;;;;;;;;;;5.60;92.80;;;;;;5005855;28;88537;-49
2024/01/18 07:24:20;;;;;;;;;;;5.60;92.70;;;;;;5004716;28;87445;-51
2024/01/18 07:26:46;;;;;;;;;;;5.60;92.70;;;;;;5001929;28;87959;-50
2024/01/18 07:29:11;;;;;;;;;;;5.60;92.70;;;;;;5009057;28;87529;-51
2024/01/18 07:31:37;;;;;;;;;;;5.60;92.70;;;;;;5009846;28;86960;-51
2024/01/18 07:34:02;;;;;;;;;;;5.60;92.70;;;;;;5007601;28;86889;-52
2024/01/18 07:36:28;;;;;;;;;;;5.60;92.60;;;;;;5009663;28;87006;-53
2024/01/18 07:38:54;;;;;;;;;;;5.70;92.70;;;;;;5009822;28;86909;-50
2024/01/18 07:41:20;;;;;;;;;;;5.70;92.70;;;;;;5008240;28;89647;-49
2024/01/18 07:43:46;;;;;;;;;;;5.70;92.70;;;;;;5009412;28;86880;-49
2024/01/18 07:46:11;;;;;;;;;;;5.70;92.70;;;;;;5009572;28;87081;-50
2024/01/18 07:48:37;;;;;;;;;;;5.70;92.80;;;;;;5008415;28;87372;-51
2024/01/18 07:51:03;;;;;;;;;;;5.70;92.80;;;;;;5012183;28;87023;-51
2024/01/18 07:53:28;;;;;;;;;;;5.70;92.80;;;;;;5008488;28;86992;-49
2024/01/18 07:55:54;;;;;;;;;;;5.70;92.70;;;;;;5008941;28;86943;-50
2024/01/18 07:58:19;;;;;;;;;;;5.70;92.80;;;;;;5009101;28;86584;-49
2024/01/18 08:00:45;;;;;;;;;;;5.70;92.80;;;;;;5008796;28;88541;-52
2024/01/18 08:03:10;;;;;;;;;;;5.70;92.70;;;;;;5009239;28;87086;-50
2024/01/18 08:05:36;;;;;;;;;;;5.70;92.70;;;;;;5006438;28;87783;-50
2024/01/18 08:08:02;;;;;;;;;;;5.70;92.60;;;;;;5008706;28;87466;-52
2024/01/18 08:10:27;;;;;;;;;;;5.80;92.70;;;;;;5009031;28;87052;-51
2024/01/18 08:12:53;;;;;;;;;;;5.80;92.70;;;;;;5011787;28;86888;-49
2024/01/18 08:15:19;;;;;;;;;;;5.80;92.70;;;;;;5008855;28;87017;-51
2024/01/18 08:17:44;;;;;;;;;;;5.80;92.70;;;;;;5009088;28;87311;-48
2024/01/18 08:20:13;;;;;;;;;;;5.80;92.60;;;;;;5006512;28;88412;-49
2024/01/18 08:22:40;;;;;;;;;;;5.80;92.70;;;;;;5009373;28;86201;-49
2024/01/18 08:25:06;;;;;;;;;;;5.80;92.60;;;;;;5008705;28;87301;-50
2024/01/18 08:27:31;;;;;;;;;;;5.80;92.60;;;;;;5004887;28;87260;-50
2024/01/18 08:29:58;;;;;;;;;;;5.80;92.70;;;;;;5007580;28;87976;-51
2024/01/18 08:32:28;;;;;;;;;;;5.80;92.70;;;;;;5008585;28;89131;-51
2024/01/18 08:34:54;;;;;;;;;;;5.90;92.70;;;;;;5007080;28;87614;-50
2024/01/18 08:37:19;;;;;;;;;;;5.90;92.70;;;;;;5006092;28;87290;-49
2024/01/18 08:39:46;;;;;;;;;;;5.90;92.80;;;;;;5007349;28;87462;-50
2024/01/18 08:42:12;;;;;;;;;;;5.90;92.80;;;;;;5008437;28;87214;-49
2024/01/18 08:44:38;;;;;;;;;;;5.90;92.70;;;;;;5008328;28;87044;-52
2024/01/18 08:47:04;;;;;;;;;;;5.90;92.70;;;;;;5008234;28;87815;-49
2024/01/18 08:49:30;;;;;;;;;;;5.90;92.70;;;;;;5006644;28;87034;-49
2024/01/18 08:51:55;;;;;;;;;;;5.90;92.70;;;;;;5006324;28;87813;-49
2024/01/18 08:54:21;;;;;;;;;;;5.90;92.70;;;;;;5009907;28;88440;-49
2024/01/18 08:56:47;;;;;;;;;;;5.90;92.60;;;;;;5008165;28;88891;-50
2024/01/18 08:59:12;;;;;;;;;;;5.90;92.60;;;;;;5007822;28;88498;-48
2024/01/18 09:01:38;;;;;;;;;;;6.00;92.80;;;;;;5008225;28;86904;-50
2024/01/18 09:04:03;;;;;;;;;;;6.00;92.80;;;;;;5007511;28;87783;-49
2024/01/18 09:06:29;;;;;;;;;;;6.00;92.80;;;;;;5007413;28;87588;-49
2024/01/18 09:08:54;;;;;;;;;;;6.00;92.80;;;;;;5006475;28;87664;-50
2024/01/18 09:11:20;;;;;;;;;;;6.00;92.80;;;;;;5007452;28;86691;-49
2024/01/18 09:13:46;;;;;;;;;;;6.00;92.80;;;;;;5002877;28;88590;-49
2024/01/18 09:16:15;;;;;;;;;;;6.00;92.90;;;;;;5010802;28;87142;-49
2024/01/18 09:18:40;;;;;;;;;;;6.00;92.90;;;;;;5006831;28;88369;-49
2024/01/18 09:21:06;;;;;;;;;;;6.00;92.90;;;;;;5005396;28;87040;-51
2024/01/18 09:23:31;;;;;;;;;;;6.10;92.90;;;;;;5008120;28;86879;-48
2024/01/18 09:25:57;;;;;;;;;;;6.10;92.70;;;;;;5007049;28;87289;-49
2024/01/18 09:28:22;;;;;;;;;;;6.10;92.80;;;;;;5007701;28;87001;-48
2024/01/18 09:30:48;;;;;;;;;;;6.10;92.80;;;;;;5006923;28;87866;-48
2024/01/18 09:33:14;;;;;;;;;;;6.10;92.80;;;;;;5006585;28;87787;-52
2024/01/18 09:35:40;;;;;;;;;;;6.10;92.70;;;;;;5007405;28;86314;-50
2024/01/18 09:38:06;;;;;;;;;;;6.10;93.00;;;;;;5010125;28;87316;-48
2024/01/18 09:40:31;;;;;;;;;;;6.10;92.70;;;;;;5007687;28;86997;-47
2024/01/18 09:42:59;;;;;;;;;;;6.20;92.70;;;;;;5005793;28;88679;-49
2024/01/18 09:45:26;;;;;;;;;;;6.20;92.80;;;;;;5004052;28;87389;-48
2024/01/18 09:47:53;;;;;;;;;;;6.20;92.80;;;;;;5007346;28;87073;-49
2024/01/18 09:50:19;;;;;;;;;;;6.20;92.80;;;;;;5005911;28;87705;-50
2024/01/18 09:52:45;;;;;;;;;;;6.20;92.80;;;;;;5003873;28;88602;-48
2024/01/18 09:55:11;;;;;;;;;;;6.20;92.80;;;;;;5005967;28;87491;-48
2024/01/18 09:57:41;;;;;;;;;;;6.30;92.80;;;;;;5006403;28;86842;-48
2024/01/18 10:00:11;;;;;;;;;;;6.30;92.90;;;;;;5010259;28;87752;-48
2024/01/18 10:02:37;;;;;;;;;;;6.20;92.80;;;;;;5003890;28;87382;-50
2024/01/18 10:05:03;;;;;;;;;;;6.30;92.80;;;;;;5006801;28;87469;-48
2024/01/18 10:07:30;;;;;;;;;;;6.30;92.80;;;;;;5005756;28;88072;-47
2024/01/18 10:09:55;;;;;;;;;;;6.20;92.90;;;;;;5006532;28;87321;-49
2024/01/18 10:12:21;;;;;;;;;;;6.30;93.00;;;;;;5006674;28;88367;-48
2024/01/18 10:14:47;;;;;;;;;;;6.30;92.90;;;;;;5006218;28;86878;-49
2024/01/18 10:17:21;;;;;;;;;;;6.30;92.90;;;;;;5006373;28;87295;-48
2024/01/18 10:19:49;;;;;;;;;;;6.30;92.90;;;;;;5006495;28;88395;-48
2024/01/18 10:22:14;;;;;;;;;;;6.30;92.90;;;;;;5004970;28;87032;-49
2024/01/18 10:24:40;;;;;;;;;;;6.30;93.20;;;;;;5006784;28;86888;-49
2024/01/18 10:27:07;;;;;;;;;;;6.40;92.90;;;;;;5006147;28;86880;-49
2024/01/18 10:29:35;;;;;;;;;;;6.40;92.90;;;;;;5004150;28;86797;-50
2024/01/18 10:32:01;;;;;;;;;;;6.40;93.00;;;;;;5005862;28;89655;-49
2024/01/18 10:34:27;;;;;;;;;;;6.40;92.90;;;;;;5006680;28;86987;-50
2024/01/18 10:36:53;;;;;;;;;;;6.40;92.90;;;;;;5006127;28;87669;-51
2024/01/18 10:39:18;;;;;;;;;;;6.40;93.00;;;;;;5006523;28;87559;-50
2024/01/18 10:41:44;;;;;;;;;;;6.40;93.00;;;;;;5006717;28;86965;-50
2024/01/18 10:44:10;;;;;;;;;;;6.40;92.90;;;;;;5009432;28;86953;-50
2024/01/18 10:46:35;;;;;;;;;;;6.40;93.00;;;;;;5005534;28;87083;-48
2024/01/18 10:49:02;;;;;;;;;;;6.40;93.00;;;;;;5006728;28;86660;-48
2024/01/18 10:51:27;;;;;;;;;;;6.50;93.10;;;;;;5002129;28;88539;-50
2024/01/18 10:53:54;;;;;;;;;;;6.50;93.30;;;;;;5006338;28;87045;-48
2024/01/18 10:56:22;;;;;;;;;;;6.50;93.10;;;;;;5005209;28;87844;-50
2024/01/18 10:58:48;;;;;;;;;;;6.50;93.10;;;;;;5002702;28;88594;-49
2024/01/18 11:01:14;;;;;;;;;;;6.50;93.10;;;;;;5005858;28;87470;-51
2024/01/18 11:03:40;;;;;;;;;;;6.60;93.10;;;;;;5008897;28;86925;-49
2024/01/18 11:06:09;;;;;;;;;;;6.60;93.10;;;;;;5006586;28;87150;-49
2024/01/18 11:08:36;;;;;;;;;;;6.60;93.10;;;;;;5006284;28;87822;-49
2024/01/18 11:11:02;;;;;;;;;;;6.50;93.20;;;;;;5008122;28;87456;-49
2024/01/18 11:13:27;;;;;;;;;;;6.60;93.20;;;;;;5008637;28;86441;-49
2024/01/18 11:15:53;;;;;;;;;;;6.60;93.20;;;;;;5009873;28;86921;-49
2024/01/18 11:18:18;;;;;;;;;;;6.60;93.30;;;;;;5009414;28;87385;-50
2024/01/18 11:20:59;;;;;;;;;;;6.60;93.30;;;;;;5008832;28;88024;-50
2024/01/18 11:23:26;;;;;;;;;;;6.60;93.40;;;;;;5007206;28;88768;-49
2024/01/18 11:25:51;;;;;;;;;;;6.60;93.40;;;;;;5012118;28;87501;-52
2024/01/18 11:28:26;;;;;;;;;;;6.70;93.30;;;;;;5008751;28;87265;-51
2024/01/18 11:30:52;;;;;;;;;;;6.60;93.40;;;;;;5007004;28;87344;-50
2024/01/18 11:33:19;;;;;;;;;;;6.60;93.50;;;;;;5009525;28;86905;-52
2024/01/18 11:35:45;;;;;;;;;;;6.60;93.50;;;;;;5009661;28;87757;-50
2024/01/18 11:38:20;;;;;;;;;;;6.60;93.50;;;;;;5007835;28;86705;-52
2024/01/18 11:40:49;;;;;;;;;;;6.60;93.60;;;;;;5008326;28;86986;-49
2024/01/18 11:43:15;;;;;;;;;;;6.60;93.70;;;;;;5009473;28;86863;-50
2024/01/18 11:45:47;;;;;;;;;;;6.60;93.70;;;;;;5008561;28;88379;-51
2024/01/18 11:48:13;;;;;;;;;;;6.60;93.80;;;;;;5012316;28;87043;-48
2024/01/18 11:50:39;;;;;;;;;;;6.60;93.80;;;;;;5009195;28;86870;-50
2024/01/18 11:53:06;;;;;;;;;;;6.70;93.80;;;;;;5008841;28;86875;-49
2024/01/18 11:55:33;;;;;;;;;;;6.70;93.80;;;;;;5009398;28;87424;-52
2024/01/18 11:58:01;;;;;;;;;;;6.70;93.80;;;;;;5008911;28;87542;-49
2024/01/18 12:00:28;;;;;;;;;;;6.70;93.90;;;;;;5005543;28;86986;-49
2024/01/18 12:02:55;;;;;;;;;;;6.70;93.90;;;;;;5009475;28;86797;-49
2024/01/18 12:05:20;;;;;;;;;;;6.70;93.90;;;;;;5007828;28;87457;-52
2024/01/18 12:07:46;;;;;;;;;;;6.70;93.90;;;;;;5007804;28;87035;-50
2024/01/18 12:10:11;;;;;;;;;;;6.70;94.00;;;;;;5010703;28;88086;-51
2024/01/18 12:12:41;;;;;;;;;;;6.70;94.00;;;;;;5007924;28;86988;-49
2024/01/18 12:15:07;;;;;;;;;;;6.70;94.00;;;;;;5005274;28;88002;-50
2024/01/18 12:17:33;;;;;;;;;;;6.70;94.00;;;;;;5007717;28;88626;-48
2024/01/18 12:19:59;;;;;;;;;;;6.70;93.90;;;;;;5008681;28;87054;-49
2024/01/18 12:22:26;;;;;;;;;;;6.70;94.00;;;;;;5008445;28;88054;-50
2024/01/18 12:24:51;;;;;;;;;;;6.80;93.90;;;;;;5007806;28;88359;-50
2024/01/18 12:27:17;;;;;;;;;;;6.80;93.90;;;;;;5007019;28;86230;-51
2024/01/18 12:29:43;;;;;;;;;;;6.80;94.00;;;;;;5009089;28;87084;-53
2024/01/18 12:32:09;;;;;;;;;;;6.80;94.00;;;;;;5011323;28;87469;-50
2024/01/18 12:34:35;;;;;;;;;;;6.80;94.00;;;;;;5008261;28;87915;-51
2024/01/18 12:37:02;;;;;;;;;;;6.80;94.00;;;;;;5008091;28;87773;-51
2024/01/18 12:39:28;;;;;;;;;;;6.80;94.10;;;;;;5005560;28;87050;-49
2024/01/18 12:41:54;;;;;;;;;;;6.80;94.10;;;;;;5005077;28;87947;-49
2024/01/18 12:44:20;;;;;;;;;;;6.80;94.10;;;;;;5008214;28;87455;-50
2024/01/18 12:46:56;;;;;;;;;;;6.90;94.10;;;;;;5007814;28;87086;-50
2024/01/18 12:49:23;;;;;;;;;;;6.80;94.20;;;;;;5004419;28;88000;-50
2024/01/18 12:51:53;;;;;;;;;;;6.80;94.20;;;;;;5006291;28;86768;-50
2024/01/18 12:54:19;;;;;;;;;;;6.90;94.10;;;;;;5010504;28;87524;-49
2024/01/18 12:56:44;;;;;;;;;;;6.90;94.20;;;;;;5004586;28;88602;-52
2024/01/18 12:59:10;;;;;;;;;;;6.90;94.10;;;;;;5007777;28;88155;-49
2024/01/18 13:01:36;;;;;;;;;;;6.90;94.20;;;;;;5007775;28;88834;-49
2024/01/18 13:04:08;;;;;;;;;;;6.90;94.20;;;;;;5007893;28;87301;-50
2024/01/18 13:06:34;;;;;;;;;;;6.90;94.20;;;;;;5008138;28;86926;-53
2024/01/18 13:09:00;;;;;;;;;;;6.90;94.10;;;;;;5004030;28;86926;-50
2024/01/18 13:11:26;;;;;;;;;;;7.00;94.20;;;;;;5007345;28;87517;-50
2024/01/18 13:13:51;;;;;;;;;;;7.00;94.10;;;;;;5010014;28;87008;-49
2024/01/18 13:16:17;;;;;;;;;;;7.00;94.00;;;;;;5008012;28;86835;-51
2024/01/18 13:18:42;;;;;;;;;;;7.00;94.00;;;;;;5003257;28;86998;-53
2024/01/18 13:21:08;;;;;;;;;;;7.10;94.00;;;;;;5008276;28;87031;-49
2024/01/18 13:23:33;;;;;;;;;;;7.10;94.00;;;;;;5003788;28;88662;-50
2024/01/18 13:25:59;;;;;;;;;;;7.10;94.00;;;;;;5007198;28;87739;-53
2024/01/18 13:28:25;;;;;;;;;;;7.10;94.00;;;;;;5005527;28;86998;-50
2024/01/18 13:30:50;;;;;;;;;;;7.10;94.00;;;;;;5007050;28;87443;-50
2024/01/18 13:33:16;;;;;;;;;;;7.10;94.10;;;;;;5007748;28;86983;-49
2024/01/18 13:35:41;;;;;;;;;;;7.20;93.90;;;;;;5009921;28;86900;-50
2024/01/18 13:38:07;;;;;;;;;;;7.10;93.90;;;;;;5006717;28;87064;-52
2024/01/18 13:40:33;;;;;;;;;;;7.20;94.00;;;;;;5006876;28;87905;-52
2024/01/18 13:42:58;;;;;;;;;;;7.20;94.00;;;;;;5005151;28;88467;-53
2024/01/18 13:45:24;;;;;;;;;;;7.20;94.00;;;;;;5007581;28;87084;-52
2024/01/18 13:47:50;;;;;;;;;;;7.20;94.10;;;;;;5004366;28;88397;-51
2024/01/18 13:50:16;;;;;;;;;;;7.20;94.00;;;;;;5005100;28;88679;-50
2024/01/18 13:52:42;;;;;;;;;;;7.20;94.10;;;;;;5008119;28;86975;-53
2024/01/18 13:55:08;;;;;;;;;;;7.30;94.00;;;;;;5004593;28;86902;-49
2024/01/18 13:57:34;;;;;;;;;;;7.30;93.90;;;;;;5008442;28;88786;-51
2024/01/18 13:59:59;;;;;;;;;;;7.30;93.90;;;;;;5007465;28;87024;-49
2024/01/18 14:02:26;;;;;;;;;;;7.30;93.90;;;;;;5003366;28;87151;-49
2024/01/18 14:04:52;;;;;;;;;;;7.40;93.90;;;;;;5007334;28;86171;-51
2024/01/18 14:07:17;;;;;;;;;;;7.40;93.80;;;;;;5006929;28;87163;-50
2024/01/18 14:09:43;;;;;;;;;;;7.40;93.80;;;;;;5005604;28;87484;-50
2024/01/18 14:12:08;;;;;;;;;;;7.40;93.80;;;;;;5006166;28;87932;-50
2024/01/18 14:14:34;;;;;;;;;;;7.40;93.90;;;;;;5005686;28;87672;-49
2024/01/18 14:17:01;;;;;;;;;;;7.40;93.90;;;;;;5006722;28;88299;-51
2024/01/18 14:19:27;;;;;;;;;;;7.40;93.80;;;;;;5009258;28;87214;-52
2024/01/18 14:21:52;;;;;;;;;;;7.40;93.80;;;;;;5006560;28;88491;-49
2024/01/18 14:24:18;;;;;;;;;;;7.50;93.80;;;;;;5006600;28;87115;-52